createdAt,value
2017-07-20T00:00:03.615Z,99652
2017-07-20T00:01:01.713Z,99644
2017-07-20T00:02:01.689Z,99645
2017-07-20T00:03:01.736Z,99649
2017-07-20T00:04:01.850Z,99647
2017-07-20T00:05:01.911Z,99648
2017-07-20T00:06:03.029Z,99650
2017-07-20T00:07:01.953Z,99647
2017-07-20T00:08:02.931Z,99639
2017-07-20T00:09:01.973Z,99640
2017-07-20T00:10:03.806Z,99639
2017-07-20T00:11:03.849Z,99646
2017-07-20T00:12:02.373Z,99647
2017-07-20T00:13:03.153Z,99645
2017-07-20T00:14:02.292Z,99637
2017-07-20T00:15:03.953Z,99635
2017-07-20T00:16:02.443Z,99648
2017-07-20T00:17:04.073Z,99645
2017-07-20T00:18:03.839Z,99644
2017-07-20T00:19:03.639Z,99636
2017-07-20T00:20:04.269Z,99633
2017-07-20T00:21:04.332Z,99640
2017-07-20T00:22:02.715Z,99639
2017-07-20T00:23:04.066Z,99627
2017-07-20T00:24:04.659Z,99633
2017-07-20T00:25:03.008Z,99636
2017-07-20T00:26:04.685Z,99634
2017-07-20T00:27:03.062Z,99632
2017-07-20T00:28:04.135Z,99630
2017-07-20T00:29:03.519Z,99621
2017-07-20T00:30:04.965Z,99620
2017-07-20T00:31:04.992Z,99620
2017-07-20T00:32:05.089Z,99620
2017-07-20T00:33:05.006Z,99631
2017-07-20T00:34:03.395Z,99628
2017-07-20T00:35:05.474Z,99631
2017-07-20T00:36:03.586Z,99633
2017-07-20T00:37:04.484Z,99631
2017-07-20T00:38:05.305Z,99622
2017-07-20T00:39:05.261Z,99629
2017-07-20T00:40:04.617Z,99632
2017-07-20T00:41:04.001Z,99631
2017-07-20T00:42:03.908Z,99630
2017-07-20T00:43:03.834Z,99630
2017-07-20T00:44:04.559Z,99629
2017-07-20T00:45:06.320Z,99629
2017-07-20T00:46:05.815Z,99624
2017-07-20T00:47:04.390Z,99632
2017-07-20T00:48:04.227Z,99632
2017-07-20T00:49:04.186Z,99629
2017-07-20T00:50:05.983Z,99632
2017-07-20T00:51:04.300Z,99630
2017-07-20T00:52:04.220Z,99631
2017-07-20T00:53:05.490Z,99629
2017-07-20T00:54:05.998Z,99628
2017-07-20T00:55:06.166Z,99625
2017-07-20T00:56:06.186Z,99616
2017-07-20T00:57:05.482Z,99616
2017-07-20T00:58:06.246Z,99615
2017-07-20T00:59:04.916Z,99615
2017-07-20T01:00:04.616Z,99616
2017-07-20T01:01:04.806Z,99621
2017-07-20T01:02:05.807Z,99619
2017-07-20T01:03:06.539Z,99612
2017-07-20T01:04:04.889Z,99614
2017-07-20T01:05:05.192Z,99619
2017-07-20T01:06:05.022Z,99623
2017-07-20T01:07:04.947Z,99623
2017-07-20T01:08:05.101Z,99623
2017-07-20T01:09:06.655Z,99624
2017-07-20T01:10:05.057Z,99623
2017-07-20T01:11:07.201Z,99615
2017-07-20T01:12:06.064Z,99621
2017-07-20T01:13:05.281Z,99613
2017-07-20T01:14:05.373Z,99611
2017-07-20T01:15:05.385Z,99618
2017-07-20T01:16:05.581Z,99611
2017-07-20T01:17:07.676Z,99620
2017-07-20T01:18:05.708Z,99615
2017-07-20T01:19:05.716Z,99615
2017-07-20T01:20:05.761Z,99612
2017-07-20T01:21:07.363Z,99612
2017-07-20T01:22:06.696Z,99613
2017-07-20T01:23:07.759Z,99610
2017-07-20T01:24:06.915Z,99611
2017-07-20T01:25:05.931Z,99608
2017-07-20T01:26:07.665Z,99603
2017-07-20T01:27:07.798Z,99604
2017-07-20T01:28:06.263Z,99605
2017-07-20T01:29:08.373Z,99606
2017-07-20T01:30:06.503Z,99606
2017-07-20T01:31:06.550Z,99607
2017-07-20T01:32:08.154Z,99602
2017-07-20T01:33:06.593Z,99601
2017-07-20T01:34:08.145Z,99601
2017-07-20T01:35:08.429Z,99600
2017-07-20T01:36:07.529Z,99597
2017-07-20T01:37:06.689Z,99598
2017-07-20T01:38:08.333Z,99599
2017-07-20T01:39:08.598Z,99598
2017-07-20T01:40:07.905Z,99597
2017-07-20T01:41:09.512Z,99596
2017-07-20T01:42:06.890Z,99590
2017-07-20T01:43:07.102Z,99584
2017-07-20T01:44:06.954Z,99581
2017-07-20T01:45:06.911Z,99579
2017-07-20T01:46:08.816Z,99578
2017-07-20T01:47:08.265Z,99573
2017-07-20T01:48:08.158Z,99576
2017-07-20T01:49:07.183Z,99577
2017-07-20T01:50:07.334Z,99573
2017-07-20T01:51:08.296Z,99568
2017-07-20T01:52:08.377Z,99561
2017-07-20T01:53:07.791Z,99557
2017-07-20T01:54:08.301Z,99553
2017-07-20T01:55:07.422Z,99543
2017-07-20T01:56:08.648Z,99541
2017-07-20T01:57:07.634Z,99539
2017-07-20T01:58:07.552Z,99539
2017-07-20T01:59:07.985Z,99546
2017-07-20T02:00:07.854Z,99544
2017-07-20T02:01:07.771Z,99542
2017-07-20T02:02:07.681Z,99541
2017-07-20T02:03:09.592Z,99539
2017-07-20T02:04:07.842Z,99538
2017-07-20T02:05:08.069Z,99529
2017-07-20T02:06:08.949Z,99533
2017-07-20T02:07:07.890Z,99527
2017-07-20T02:08:07.956Z,99528
2017-07-20T02:09:08.037Z,99530
2017-07-20T02:10:09.820Z,99533
2017-07-20T02:11:08.392Z,99528
2017-07-20T02:12:10.110Z,99530
2017-07-20T02:13:08.364Z,99527
2017-07-20T02:14:09.527Z,99518
2017-07-20T02:15:09.509Z,99518
2017-07-20T02:16:08.409Z,99523
2017-07-20T02:17:09.546Z,99526
2017-07-20T02:18:08.567Z,99528
2017-07-20T02:19:10.237Z,99530
2017-07-20T02:20:10.333Z,99535
2017-07-20T02:21:09.431Z,99531
2017-07-20T02:22:08.749Z,99532
2017-07-20T02:23:10.626Z,99540
2017-07-20T02:24:08.895Z,99538
2017-07-20T02:25:10.470Z,99535
2017-07-20T02:26:08.890Z,99537
2017-07-20T02:27:09.829Z,99537
2017-07-20T02:28:10.708Z,99537
2017-07-20T02:29:10.033Z,99538
2017-07-20T02:30:10.914Z,99534
2017-07-20T02:31:10.899Z,99531
2017-07-20T02:32:09.199Z,99542
2017-07-20T02:33:10.317Z,99544
2017-07-20T02:34:10.994Z,99551
2017-07-20T02:35:11.463Z,99549
2017-07-20T02:36:11.269Z,99554
2017-07-20T02:37:09.566Z,99553
2017-07-20T02:38:09.649Z,99554
2017-07-20T02:39:09.657Z,99559
2017-07-20T02:40:11.634Z,99561
2017-07-20T02:41:11.016Z,99559
2017-07-20T02:42:09.959Z,99561
2017-07-20T02:43:10.000Z,99565
2017-07-20T02:44:11.755Z,99558
2017-07-20T02:45:09.996Z,99559
2017-07-20T02:46:10.252Z,99561
2017-07-20T02:47:10.416Z,99555
2017-07-20T02:48:10.275Z,99555
2017-07-20T02:49:10.235Z,99556
2017-07-20T02:50:11.182Z,99556
2017-07-20T02:51:12.019Z,99549
2017-07-20T02:52:10.395Z,99555
2017-07-20T02:53:10.686Z,99550
2017-07-20T02:54:11.665Z,99553
2017-07-20T02:55:11.631Z,99553
2017-07-20T02:56:12.369Z,99556
2017-07-20T02:57:10.555Z,99557
2017-07-20T02:58:10.682Z,99555
2017-07-20T02:59:11.105Z,99554
2017-07-20T03:00:12.533Z,99553
2017-07-20T03:01:11.895Z,99551
2017-07-20T03:02:12.165Z,99543
2017-07-20T03:03:12.629Z,99537
2017-07-20T03:04:11.009Z,99537
2017-07-20T03:05:11.402Z,99534
2017-07-20T03:06:12.021Z,99536
2017-07-20T03:07:11.276Z,99533
2017-07-20T03:08:12.842Z,99530
2017-07-20T03:09:12.836Z,99521
2017-07-20T03:10:12.266Z,99520
2017-07-20T03:11:13.340Z,99534
2017-07-20T03:12:12.251Z,99537
2017-07-20T03:13:13.029Z,99541
2017-07-20T03:14:13.219Z,99534
2017-07-20T03:15:13.289Z,99535
2017-07-20T03:16:11.584Z,99530
2017-07-20T03:17:11.843Z,99530
2017-07-20T03:18:11.711Z,99528
2017-07-20T03:19:12.645Z,99526
2017-07-20T03:20:11.776Z,99526
2017-07-20T03:21:13.418Z,99526
2017-07-20T03:22:12.051Z,99522
2017-07-20T03:23:14.047Z,99525
2017-07-20T03:24:12.254Z,99523
2017-07-20T03:25:12.122Z,99522
2017-07-20T03:26:12.452Z,99521
2017-07-20T03:27:14.086Z,99522
2017-07-20T03:28:14.131Z,99520
2017-07-20T03:29:12.590Z,99519
2017-07-20T03:30:14.078Z,99520
2017-07-20T03:31:14.008Z,99522
2017-07-20T03:32:13.372Z,99528
2017-07-20T03:33:13.391Z,99533
2017-07-20T03:34:12.592Z,99530
2017-07-20T03:35:12.828Z,99532
2017-07-20T03:36:12.719Z,99532
2017-07-20T03:37:12.637Z,99522
2017-07-20T03:38:12.725Z,99526
2017-07-20T03:39:13.015Z,99518
2017-07-20T03:40:12.852Z,99518
2017-07-20T03:41:14.363Z,99521
2017-07-20T03:42:13.125Z,99523
2017-07-20T03:43:14.900Z,99522
2017-07-20T03:44:13.257Z,99523
2017-07-20T03:45:15.001Z,99519
2017-07-20T03:46:13.338Z,99518
2017-07-20T03:47:15.197Z,99522
2017-07-20T03:48:13.259Z,99518
2017-07-20T03:49:13.241Z,99517
2017-07-20T03:50:13.208Z,99516
2017-07-20T03:51:13.307Z,99513
2017-07-20T03:52:14.316Z,99506
2017-07-20T03:53:13.623Z,99511
2017-07-20T03:54:13.511Z,99509
2017-07-20T03:55:14.440Z,99513
2017-07-20T03:56:13.524Z,99512
2017-07-20T03:57:14.687Z,99518
2017-07-20T03:58:15.488Z,99523
2017-07-20T03:59:14.163Z,99531
2017-07-20T04:00:13.794Z,99531
2017-07-20T04:01:13.942Z,99533
2017-07-20T04:02:14.017Z,99531
2017-07-20T04:03:15.635Z,99535
2017-07-20T04:04:15.087Z,99538
2017-07-20T04:05:15.356Z,99541
2017-07-20T04:06:15.086Z,99545
2017-07-20T04:07:15.920Z,99544
2017-07-20T04:08:14.316Z,99548
2017-07-20T04:09:15.306Z,99560
2017-07-20T04:10:15.928Z,99562
2017-07-20T04:11:14.684Z,99560
2017-07-20T04:12:14.457Z,99561
2017-07-20T04:13:16.138Z,99562
2017-07-20T04:14:15.559Z,99573
2017-07-20T04:15:14.655Z,99592
2017-07-20T04:16:15.706Z,99611
2017-07-20T04:17:15.109Z,99640
2017-07-20T04:18:14.934Z,99652
2017-07-20T04:19:15.924Z,99670
2017-07-20T04:20:15.029Z,99672
2017-07-20T04:21:16.062Z,99668
2017-07-20T04:22:15.151Z,99675
2017-07-20T04:23:15.535Z,99670
2017-07-20T04:24:16.806Z,99684
2017-07-20T04:25:15.177Z,99677
2017-07-20T04:26:15.360Z,99670
2017-07-20T04:27:15.344Z,99666
2017-07-20T04:28:17.070Z,99666
2017-07-20T04:29:15.892Z,99668
2017-07-20T04:30:16.558Z,99671
2017-07-20T04:31:15.580Z,99673
2017-07-20T04:32:16.552Z,99678
2017-07-20T04:33:16.651Z,99677
2017-07-20T04:34:15.842Z,99673
2017-07-20T04:35:16.811Z,99684
2017-07-20T04:36:17.599Z,99688
2017-07-20T04:37:16.100Z,99690
2017-07-20T04:38:16.159Z,99700
2017-07-20T04:39:17.765Z,99710
2017-07-20T04:40:16.104Z,99717
2017-07-20T04:41:17.118Z,99726
2017-07-20T04:42:16.336Z,99728
2017-07-20T04:43:17.918Z,99738
2017-07-20T04:44:17.227Z,99755
2017-07-20T04:45:16.474Z,99774
2017-07-20T04:46:16.486Z,99773
2017-07-20T04:47:17.403Z,99786
2017-07-20T04:48:16.532Z,99761
2017-07-20T04:50:18.376Z,99751
2017-07-20T04:51:16.695Z,99747
2017-07-20T04:52:16.736Z,99739
2017-07-20T04:53:18.754Z,99739
2017-07-20T04:54:16.813Z,99730
2017-07-20T04:55:16.872Z,99723
2017-07-20T04:56:17.021Z,99710
2017-07-20T04:57:17.106Z,99724
2017-07-20T04:58:18.136Z,99718
2017-07-20T04:59:17.382Z,99728
2017-07-20T05:00:18.237Z,99718
2017-07-20T05:01:18.242Z,99719
2017-07-20T05:02:17.312Z,99720
2017-07-20T05:03:17.380Z,99730
2017-07-20T05:04:18.988Z,99712
2017-07-20T05:05:17.644Z,99716
2017-07-20T05:06:18.340Z,99704
2017-07-20T05:07:19.097Z,99711
2017-07-20T05:08:19.262Z,99716
2017-07-20T05:09:19.198Z,99709
2017-07-20T05:10:17.632Z,99712
2017-07-20T05:11:19.652Z,99710
2017-07-20T05:12:17.697Z,99705
2017-07-20T05:13:18.835Z,99704
2017-07-20T05:14:17.874Z,99702
2017-07-20T05:15:18.862Z,99693
2017-07-20T05:16:18.804Z,99704
2017-07-20T05:17:18.207Z,99703
2017-07-20T05:18:19.571Z,99697
2017-07-20T05:19:19.851Z,99689
2017-07-20T05:20:19.097Z,99690
2017-07-20T05:21:18.180Z,99687
2017-07-20T05:22:20.036Z,99683
2017-07-20T05:23:18.724Z,99683
2017-07-20T05:24:20.071Z,99684
2017-07-20T05:25:18.434Z,99684
2017-07-20T05:26:18.496Z,99688
2017-07-20T05:27:18.514Z,99685
2017-07-20T05:28:18.602Z,99688
2017-07-20T05:29:20.559Z,99686
2017-07-20T05:30:18.670Z,99685
2017-07-20T05:31:18.819Z,99686
2017-07-20T05:32:18.826Z,99686
2017-07-20T05:33:18.810Z,99683
2017-07-20T05:34:18.873Z,99693
2017-07-20T05:35:20.957Z,99688
2017-07-20T05:36:20.636Z,99690
2017-07-20T05:37:18.979Z,99688
2017-07-20T05:38:19.027Z,99693
2017-07-20T05:39:19.076Z,99695
2017-07-20T05:40:20.898Z,99695
2017-07-20T05:41:20.130Z,99703
2017-07-20T05:42:19.286Z,99702
2017-07-20T05:43:19.260Z,99703
2017-07-20T05:44:21.001Z,99706
2017-07-20T05:45:19.346Z,99710
2017-07-20T05:46:19.436Z,99710
2017-07-20T05:47:20.771Z,99705
2017-07-20T05:48:21.191Z,99706
2017-07-20T05:49:20.509Z,99704
2017-07-20T05:50:20.738Z,99711
2017-07-20T05:51:19.712Z,99699
2017-07-20T05:52:19.809Z,99702
2017-07-20T05:53:21.953Z,99706
2017-07-20T05:54:21.602Z,99700
2017-07-20T05:55:20.131Z,99699
2017-07-20T05:56:21.093Z,99699
2017-07-20T05:57:22.010Z,99695
2017-07-20T05:58:20.365Z,99697
2017-07-20T05:59:21.701Z,99692
2017-07-20T06:00:21.357Z,99695
2017-07-20T06:01:21.432Z,99692
2017-07-20T06:02:20.475Z,99688
2017-07-20T06:03:20.484Z,99686
2017-07-20T06:04:21.447Z,99685
2017-07-20T06:05:22.653Z,99691
2017-07-20T06:06:22.314Z,99694
2017-07-20T06:07:22.419Z,99695
2017-07-20T06:08:22.438Z,99699
2017-07-20T06:09:21.763Z,99688
2017-07-20T06:10:22.615Z,99694
2017-07-20T06:11:21.292Z,99690
2017-07-20T06:12:23.887Z,99693
2017-07-20T06:13:22.140Z,99689
2017-07-20T06:14:22.222Z,99688
2017-07-20T06:15:23.957Z,99694
2017-07-20T06:16:22.374Z,99696
2017-07-20T06:17:24.140Z,99705
2017-07-20T06:18:23.633Z,99708
2017-07-20T06:19:22.603Z,99703
2017-07-20T06:20:22.671Z,99693
2017-07-20T06:21:23.702Z,99686
2017-07-20T06:22:22.707Z,99685
2017-07-20T06:23:23.910Z,99683
2017-07-20T06:24:22.961Z,99685
2017-07-20T06:25:22.962Z,99686
2017-07-20T06:26:23.042Z,99684
2017-07-20T06:27:23.023Z,99683
2017-07-20T06:28:23.274Z,99688
2017-07-20T06:29:24.919Z,99691
2017-07-20T06:30:24.355Z,99678
2017-07-20T06:31:25.120Z,99683
2017-07-20T06:32:25.207Z,99675
2017-07-20T06:33:23.369Z,99676
2017-07-20T06:34:25.325Z,99674
2017-07-20T06:35:23.541Z,99669
2017-07-20T06:36:24.562Z,99665
2017-07-20T06:37:24.838Z,99658
2017-07-20T06:38:24.142Z,99659
2017-07-20T06:39:25.363Z,99659
2017-07-20T06:40:23.793Z,99663
2017-07-20T06:41:25.481Z,99668
2017-07-20T06:42:23.861Z,99673
2017-07-20T06:43:23.988Z,99682
2017-07-20T06:44:26.411Z,99680
2017-07-20T06:45:25.805Z,99678
2017-07-20T06:46:25.060Z,99671
2017-07-20T06:47:25.985Z,99667
2017-07-20T06:48:24.977Z,99662
2017-07-20T06:49:25.956Z,99645
2017-07-20T06:50:24.405Z,99650
2017-07-20T06:51:24.408Z,99650
2017-07-20T06:52:24.557Z,99639
2017-07-20T06:53:26.163Z,99645
2017-07-20T06:54:24.654Z,99649
2017-07-20T06:55:24.620Z,99652
2017-07-20T06:56:24.802Z,99656
2017-07-20T06:57:26.445Z,99660
2017-07-20T06:58:24.796Z,99661
2017-07-20T06:59:25.405Z,99668
2017-07-20T07:00:25.077Z,99670
2017-07-20T07:01:24.868Z,99676
2017-07-20T07:02:26.575Z,99685
2017-07-20T07:03:25.101Z,99680
2017-07-20T07:04:25.141Z,99681
2017-07-20T07:05:26.246Z,99679
2017-07-20T07:06:25.671Z,99675
2017-07-20T07:07:26.181Z,99673
2017-07-20T07:08:27.226Z,99684
2017-07-20T07:09:25.382Z,99680
2017-07-20T07:10:25.527Z,99676
2017-07-20T07:11:27.117Z,99666
2017-07-20T07:12:26.350Z,99662
2017-07-20T07:13:27.352Z,99667
2017-07-20T07:14:26.667Z,99671
2017-07-20T07:15:25.520Z,99669
2017-07-20T07:16:25.587Z,99665
2017-07-20T07:17:28.249Z,99665
2017-07-20T07:18:25.557Z,99668
2017-07-20T07:19:25.597Z,99663
2017-07-20T07:20:26.867Z,99669
2017-07-20T07:21:27.534Z,99661
2017-07-20T07:22:26.223Z,99660
2017-07-20T07:23:25.912Z,99657
2017-07-20T07:24:27.427Z,99656
2017-07-20T07:25:27.362Z,99655
2017-07-20T07:26:26.101Z,99656
2017-07-20T07:27:28.000Z,99659
2017-07-20T07:28:26.260Z,99650
2017-07-20T07:29:26.327Z,99655
2017-07-20T07:30:27.546Z,99650
2017-07-20T07:31:27.573Z,99650
2017-07-20T07:32:26.757Z,99642
2017-07-20T07:33:28.825Z,99648
2017-07-20T07:34:27.652Z,99646
2017-07-20T07:35:28.352Z,99648
2017-07-20T07:36:27.003Z,99646
2017-07-20T07:37:28.642Z,99649
2017-07-20T07:38:28.804Z,99650
2017-07-20T07:39:28.840Z,99649
2017-07-20T07:40:29.382Z,99643
2017-07-20T07:41:28.929Z,99644
2017-07-20T07:42:26.998Z,99644
2017-07-20T07:43:28.440Z,99646
2017-07-20T07:44:27.404Z,99645
2017-07-20T07:45:28.059Z,99644
2017-07-20T07:46:28.328Z,99647
2017-07-20T07:47:28.501Z,99650
2017-07-20T07:48:28.572Z,99648
2017-07-20T07:49:28.579Z,99654
2017-07-20T07:50:29.321Z,99654
2017-07-20T07:51:27.667Z,99651
2017-07-20T07:52:27.527Z,99660
2017-07-20T07:53:28.237Z,99654
2017-07-20T07:54:28.802Z,99663
2017-07-20T07:55:29.723Z,99661
2017-07-20T07:56:28.883Z,99661
2017-07-20T07:57:28.889Z,99664
2017-07-20T07:59:29.602Z,99605
2017-07-20T08:00:29.860Z,99664
2017-07-20T08:01:29.200Z,99667
2017-07-20T08:02:29.787Z,99664
2017-07-20T08:03:29.993Z,99659
2017-07-20T08:04:27.970Z,99668
2017-07-20T08:05:29.796Z,99658
2017-07-20T08:06:28.205Z,99664
2017-07-20T08:07:28.167Z,99674
2017-07-20T08:08:29.441Z,99677
2017-07-20T08:09:28.920Z,99674
2017-07-20T08:10:28.312Z,99678
2017-07-20T08:11:30.507Z,99673
2017-07-20T08:12:28.567Z,99671
2017-07-20T08:13:29.435Z,99682
2017-07-20T08:14:31.133Z,99683
2017-07-20T08:15:29.693Z,99672
2017-07-20T08:16:28.687Z,99679
2017-07-20T08:17:29.264Z,99676
2017-07-20T08:18:29.438Z,99677
2017-07-20T08:19:30.648Z,99676
2017-07-20T08:20:30.672Z,99676
2017-07-20T08:21:30.096Z,99682
2017-07-20T08:22:29.969Z,99678
2017-07-20T08:23:31.117Z,99680
2017-07-20T08:24:29.957Z,99676
2017-07-20T08:25:31.074Z,99674
2017-07-20T08:26:34.801Z,99673
2017-07-20T08:27:29.821Z,99676
2017-07-20T08:28:31.091Z,99681
2017-07-20T08:29:30.038Z,99683
2017-07-20T08:30:30.042Z,99679
2017-07-20T08:31:30.277Z,99683
2017-07-20T08:32:31.593Z,99681
2017-07-20T08:33:32.207Z,99678
2017-07-20T08:34:31.215Z,99685
2017-07-20T08:35:32.101Z,99687
2017-07-20T08:36:30.452Z,99677
2017-07-20T08:37:31.516Z,99687
2017-07-20T08:38:31.752Z,99684
2017-07-20T08:39:33.802Z,99684
2017-07-20T08:40:32.636Z,99684
2017-07-20T08:41:30.917Z,99684
2017-07-20T08:42:32.001Z,99672
2017-07-20T08:43:30.921Z,99688
2017-07-20T08:44:32.089Z,99690
2017-07-20T08:45:31.202Z,99688
2017-07-20T08:46:31.179Z,99695
2017-07-20T08:47:32.299Z,99694
2017-07-20T08:48:33.429Z,99683
2017-07-20T08:49:31.610Z,99687
2017-07-20T08:50:32.360Z,99687
2017-07-20T08:51:32.556Z,99696
2017-07-20T08:52:33.089Z,99696
2017-07-20T08:53:32.945Z,99703
2017-07-20T08:54:32.471Z,99688
2017-07-20T08:55:31.573Z,99694
2017-07-20T08:56:31.566Z,99696
2017-07-20T08:57:33.459Z,99694
2017-07-20T08:58:31.681Z,99700
2017-07-20T08:59:31.824Z,99698
2017-07-20T09:00:31.912Z,99703
2017-07-20T09:01:31.858Z,99697
2017-07-20T09:02:32.778Z,99700
2017-07-20T09:03:33.739Z,99701
2017-07-20T09:04:33.778Z,99694
2017-07-20T09:05:33.563Z,99702
2017-07-20T09:06:33.913Z,99701
2017-07-20T09:07:32.439Z,99704
2017-07-20T09:08:34.149Z,99706
2017-07-20T09:09:34.084Z,99708
2017-07-20T09:10:33.946Z,99706
2017-07-20T09:11:33.267Z,99704
2017-07-20T09:12:33.420Z,99703
2017-07-20T09:13:34.352Z,99697
2017-07-20T09:14:33.297Z,99704
2017-07-20T09:15:34.497Z,99707
2017-07-20T09:16:33.629Z,99712
2017-07-20T09:17:33.554Z,99709
2017-07-20T09:18:33.739Z,99704
2017-07-20T09:19:32.821Z,99712
2017-07-20T09:20:35.798Z,99709
2017-07-20T09:21:33.359Z,99711
2017-07-20T09:22:32.936Z,99713
2017-07-20T09:23:34.187Z,99720
2017-07-20T09:24:33.088Z,99713
2017-07-20T09:25:33.246Z,99711
2017-07-20T09:26:33.183Z,99704
2017-07-20T09:27:34.076Z,99705
2017-07-20T09:28:33.238Z,99706
2017-07-20T09:29:35.064Z,99704
2017-07-20T09:30:33.953Z,99701
2017-07-20T09:31:33.300Z,99701
2017-07-20T09:32:35.187Z,99702
2017-07-20T09:33:39.141Z,99714
2017-07-20T09:34:37.806Z,99717
2017-07-20T09:35:39.927Z,99717
2017-07-20T09:36:37.940Z,99714
2017-07-20T09:37:38.087Z,99713
2017-07-20T09:38:38.161Z,99707
2017-07-20T09:39:38.229Z,99716
2017-07-20T09:40:38.325Z,99705
2017-07-20T09:41:39.980Z,99704
2017-07-20T09:42:40.188Z,99706
2017-07-20T09:43:40.528Z,99706
2017-07-20T09:44:38.648Z,99700
2017-07-20T09:45:40.914Z,99699
2017-07-20T09:46:39.396Z,99700
2017-07-20T09:47:40.243Z,99699
2017-07-20T09:48:38.817Z,99696
2017-07-20T09:49:38.893Z,99698
2017-07-20T09:50:40.485Z,99702
2017-07-20T09:51:39.557Z,99699
2017-07-20T09:52:39.909Z,99697
2017-07-20T09:53:39.849Z,99692
2017-07-20T09:54:39.829Z,99694
2017-07-20T09:55:40.036Z,99680
2017-07-20T09:56:39.261Z,99685
2017-07-20T09:57:41.525Z,99689
2017-07-20T09:58:40.173Z,99685
2017-07-20T09:59:40.211Z,99687
2017-07-20T10:00:40.321Z,99678
2017-07-20T10:01:41.172Z,99682
2017-07-20T10:02:39.468Z,99688
2017-07-20T10:03:39.559Z,99688
2017-07-20T10:04:40.621Z,99689
2017-07-20T10:05:41.265Z,99687
2017-07-20T10:06:40.931Z,99700
2017-07-20T10:07:41.498Z,99700
2017-07-20T10:08:42.791Z,99697
2017-07-20T10:09:40.061Z,99707
2017-07-20T10:10:44.133Z,99701
2017-07-20T10:11:42.997Z,99701
2017-07-20T10:12:41.043Z,99698
2017-07-20T10:13:40.030Z,99692
2017-07-20T10:14:41.071Z,99693
2017-07-20T10:15:40.111Z,99690
2017-07-20T10:16:43.188Z,99680
2017-07-20T10:17:41.232Z,99688
2017-07-20T10:18:41.499Z,99688
2017-07-20T10:19:41.695Z,99693
2017-07-20T10:20:42.377Z,99689
2017-07-20T10:21:40.527Z,99688
2017-07-20T10:22:40.585Z,99682
2017-07-20T10:23:41.369Z,99692
2017-07-20T10:24:41.734Z,99688
2017-07-20T10:26:41.445Z,99686
2017-07-20T10:27:43.616Z,99679
2017-07-20T10:28:42.631Z,99686
2017-07-20T10:29:42.715Z,99693
2017-07-20T10:30:40.941Z,99691
2017-07-20T10:31:40.998Z,99688
2017-07-20T10:32:42.752Z,99687
2017-07-20T10:33:42.025Z,99694
2017-07-20T10:34:41.163Z,99691
2017-07-20T10:35:41.789Z,99693
2017-07-20T10:36:41.106Z,99690
2017-07-20T10:37:41.223Z,99685
2017-07-20T10:38:42.880Z,99690
2017-07-20T10:39:43.038Z,99672
2017-07-20T10:40:41.947Z,99683
2017-07-20T10:42:41.423Z,99692
2017-07-20T10:43:43.688Z,99694
2017-07-20T10:44:41.651Z,99685
2017-07-20T10:45:43.355Z,99681
2017-07-20T10:46:42.111Z,99676
2017-07-20T10:47:42.516Z,99686
2017-07-20T10:48:43.895Z,99671
2017-07-20T10:49:43.990Z,99681
2017-07-20T10:50:41.870Z,99692
2017-07-20T10:51:44.055Z,99696
2017-07-20T10:52:42.841Z,99694
2017-07-20T10:53:41.966Z,99685
2017-07-20T10:54:43.645Z,99683
2017-07-20T10:55:42.132Z,99685
2017-07-20T10:56:43.670Z,99689
2017-07-20T10:57:43.799Z,99687
2017-07-20T10:58:42.805Z,99688
2017-07-20T10:59:44.045Z,99697
2017-07-20T11:00:43.864Z,99694
2017-07-20T11:01:42.242Z,99694
2017-07-20T11:02:43.111Z,99686
2017-07-20T11:03:43.991Z,99683
2017-07-20T11:04:44.079Z,99685
2017-07-20T11:05:44.250Z,99694
2017-07-20T11:06:45.408Z,99683
2017-07-20T11:07:44.198Z,99684
2017-07-20T11:08:43.520Z,99677
2017-07-20T11:09:43.273Z,99676
2017-07-20T11:10:45.149Z,99676
2017-07-20T11:11:44.073Z,99671
2017-07-20T11:12:44.504Z,99675
2017-07-20T11:13:42.881Z,99678
2017-07-20T11:14:44.620Z,99689
2017-07-20T11:15:42.907Z,99682
2017-07-20T11:16:42.992Z,99687
2017-07-20T11:17:44.071Z,99698
2017-07-20T11:18:43.586Z,99687
2017-07-20T11:19:43.022Z,99693
2017-07-20T11:20:43.806Z,99677
2017-07-20T11:21:43.538Z,99673
2017-07-20T11:22:44.648Z,99677
2017-07-20T11:23:44.189Z,99689
2017-07-20T11:24:43.194Z,99669
2017-07-20T11:25:43.246Z,99661
2017-07-20T11:26:44.266Z,99662
2017-07-20T11:27:45.175Z,99649
2017-07-20T11:28:44.205Z,99660
2017-07-20T11:29:43.443Z,99661
2017-07-20T11:30:43.507Z,99667
2017-07-20T11:31:43.527Z,99659
2017-07-20T11:32:46.040Z,99657
2017-07-20T11:33:43.635Z,99656
2017-07-20T11:34:45.507Z,99653
2017-07-20T11:35:43.772Z,99652
2017-07-20T11:36:45.570Z,99653
2017-07-20T11:37:44.410Z,99657
2017-07-20T11:38:44.916Z,99645
2017-07-20T11:39:44.894Z,99647
2017-07-20T11:40:45.063Z,99647
2017-07-20T11:41:44.095Z,99657
2017-07-20T11:42:44.319Z,99645
2017-07-20T11:43:44.215Z,99642
2017-07-20T11:44:46.467Z,99647
2017-07-20T11:45:44.364Z,99655
2017-07-20T11:46:45.456Z,99635
2017-07-20T11:47:46.123Z,99648
2017-07-20T11:48:45.552Z,99633
2017-07-20T11:49:44.638Z,99652
2017-07-20T11:50:46.188Z,99648
2017-07-20T11:51:44.764Z,99653
2017-07-20T11:52:47.665Z,99647
2017-07-20T11:53:45.779Z,99654
2017-07-20T11:54:44.940Z,99639
2017-07-20T11:55:45.830Z,99643
2017-07-20T11:56:45.730Z,99657
2017-07-20T11:57:45.071Z,99649
2017-07-20T11:58:47.346Z,99641
2017-07-20T11:59:45.040Z,99652
2017-07-20T12:00:48.916Z,99639
2017-07-20T12:01:46.836Z,99637
2017-07-20T12:02:47.606Z,99642
2017-07-20T12:03:45.328Z,99639
2017-07-20T12:04:45.296Z,99634
2017-07-20T12:05:46.034Z,99638
2017-07-20T12:06:45.382Z,99635
2017-07-20T12:07:45.526Z,99649
2017-07-20T12:08:45.552Z,99647
2017-07-20T12:09:45.483Z,99652
2017-07-20T12:10:46.556Z,99641
2017-07-20T12:11:46.461Z,99655
2017-07-20T12:12:46.284Z,99644
2017-07-20T12:13:45.613Z,99652
2017-07-20T12:14:46.436Z,99649
2017-07-20T12:15:46.831Z,99646
2017-07-20T12:16:48.416Z,99648
2017-07-20T12:17:46.881Z,99645
2017-07-20T12:18:45.927Z,99644
2017-07-20T12:19:46.966Z,99630
2017-07-20T12:20:48.176Z,99651
2017-07-20T12:21:48.397Z,99651
2017-07-20T12:22:48.756Z,99641
2017-07-20T12:23:47.909Z,99648
2017-07-20T12:24:47.967Z,99656
2017-07-20T12:25:46.492Z,99649
2017-07-20T12:26:47.350Z,99646
2017-07-20T12:27:47.139Z,99651
2017-07-20T12:28:46.517Z,99656
2017-07-20T12:29:47.746Z,99646
2017-07-20T12:30:46.705Z,99650
2017-07-20T12:31:48.466Z,99648
2017-07-20T12:32:47.897Z,99648
2017-07-20T12:33:48.523Z,99640
2017-07-20T12:34:48.623Z,99636
2017-07-20T12:35:49.862Z,99638
2017-07-20T12:36:48.251Z,99634
2017-07-20T12:37:47.714Z,99635
2017-07-20T12:38:48.180Z,99627
2017-07-20T12:39:47.262Z,99635
2017-07-20T12:40:49.517Z,99626
2017-07-20T12:41:48.254Z,99638
2017-07-20T12:42:47.983Z,99638
2017-07-20T12:43:48.433Z,99636
2017-07-20T12:44:47.530Z,99636
2017-07-20T12:45:47.518Z,99636
2017-07-20T12:46:48.555Z,99631
2017-07-20T12:47:47.631Z,99633
2017-07-20T12:48:48.710Z,99633
2017-07-20T12:49:47.712Z,99633
2017-07-20T12:50:49.507Z,99641
2017-07-20T12:51:47.852Z,99633
2017-07-20T12:52:47.893Z,99649
2017-07-20T12:53:49.520Z,99633
2017-07-20T12:54:47.962Z,99639
2017-07-20T12:55:48.920Z,99630
2017-07-20T12:56:48.018Z,99632